createdAt,value
2022-09-26T00:00:43.113Z,22.40
2022-09-26T00:03:11.098Z,21.05
2022-09-26T00:05:38.938Z,20.33
2022-09-26T00:08:07.361Z,19.75
2022-09-26T00:10:35.025Z,21.40
2022-09-26T00:13:01.794Z,21.15
2022-09-26T00:15:28.474Z,20.45
2022-09-26T00:17:55.458Z,19.27
2022-09-26T00:20:22.107Z,22.17
2022-09-26T00:22:48.769Z,19.08
2022-09-26T00:25:15.864Z,21.30
2022-09-26T00:27:42.446Z,21.50
2022-09-26T00:30:09.655Z,21.10
2022-09-26T00:32:36.680Z,20.37
2022-09-26T00:35:03.531Z,21.80
2022-09-26T00:37:30.308Z,22.05
2022-09-26T00:39:57.243Z,20.02
2022-09-26T00:42:24.813Z,19.60
2022-09-26T00:44:56.799Z,18.00
2022-09-26T00:47:41.303Z,21.52
2022-09-26T00:50:24.906Z,21.98
2022-09-26T00:52:58.796Z,19.35
2022-09-26T00:55:30.210Z,19.42
2022-09-26T00:58:04.553Z,20.83
2022-09-26T01:00:31.807Z,19.33
2022-09-26T01:02:58.992Z,18.98
2022-09-26T01:05:26.093Z,20.35
2022-09-26T01:07:55.837Z,18.30
2022-09-26T01:10:24.600Z,19.98
2022-09-26T01:12:52.434Z,16.45
2022-09-26T01:15:19.200Z,18.23
2022-09-26T01:17:48.580Z,15.43
2022-09-26T01:20:30.862Z,15.43
2022-09-26T01:23:09.951Z,17.70
2022-09-26T01:25:48.710Z,17.02
2022-09-26T01:28:34.267Z,16.23
2022-09-26T01:31:12.823Z,16.27
2022-09-26T01:33:56.521Z,16.10
2022-09-26T01:36:30.993Z,16.33
2022-09-26T01:39:08.508Z,18.60
2022-09-26T01:41:48.242Z,17.50
2022-09-26T01:44:30.982Z,16.87
2022-09-26T01:47:15.057Z,14.75
2022-09-26T01:50:01.063Z,13.60
2022-09-26T01:52:37.222Z,10.93
2022-09-26T01:55:32.364Z,11.85
2022-09-26T01:58:10.015Z,13.05
2022-09-26T02:00:39.861Z,12.07
2022-09-26T02:03:13.687Z,12.88
2022-09-26T02:06:02.514Z,11.77
2022-09-26T02:08:44.310Z,12.37
2022-09-26T02:11:17.326Z,12.57
2022-09-26T02:13:55.759Z,13.02
2022-09-26T02:16:36.382Z,12.45
2022-09-26T02:19:10.311Z,12.20
2022-09-26T02:21:37.456Z,10.88
2022-09-26T02:24:04.494Z,12.55
2022-09-26T02:26:33.709Z,12.68
2022-09-26T02:29:01.702Z,12.43
2022-09-26T02:31:34.282Z,12.00
2022-09-26T02:34:03.850Z,11.75
2022-09-26T02:36:33.671Z,12.52
2022-09-26T02:39:01.726Z,12.23
2022-09-26T02:42:28.363Z,12.60
2022-09-26T02:45:50.403Z,12.75
2022-09-26T02:48:38.847Z,12.05
2022-09-26T02:51:30.555Z,12.18
2022-09-26T02:54:22.772Z,10.52
2022-09-26T02:57:09.500Z,13.25
2022-09-26T02:59:59.200Z,11.73
2022-09-26T03:02:34.000Z,13.48
2022-09-26T03:05:20.561Z,13.32
2022-09-26T03:07:54.302Z,12.88
2022-09-26T03:10:21.660Z,13.57
2022-09-26T03:12:50.978Z,13.57
2022-09-26T03:15:19.664Z,13.65
2022-09-26T03:17:54.078Z,14.85
2022-09-26T03:20:23.053Z,14.07
2022-09-26T03:22:51.083Z,14.02
2022-09-26T03:25:24.133Z,14.87
2022-09-26T03:27:53.947Z,12.55
2022-09-26T03:30:22.113Z,13.15
2022-09-26T03:32:50.644Z,11.95
2022-09-26T03:35:17.740Z,14.25
2022-09-26T03:37:45.604Z,11.45
2022-09-26T03:40:12.766Z,14.05
2022-09-26T03:42:41.902Z,13.85
2022-09-26T03:45:10.941Z,13.57
2022-09-26T03:47:42.027Z,14.30
2022-09-26T03:50:09.544Z,12.95
2022-09-26T03:52:36.632Z,14.05
2022-09-26T03:55:04.592Z,13.70
2022-09-26T03:57:31.578Z,14.38
2022-09-26T03:59:59.262Z,15.40
2022-09-26T04:02:27.225Z,15.75
2022-09-26T04:04:55.113Z,15.60
2022-09-26T04:07:22.118Z,15.35
2022-09-26T04:09:48.822Z,16.08
2022-09-26T04:12:16.486Z,14.85
2022-09-26T04:14:43.513Z,15.30
2022-09-26T04:17:10.527Z,14.48
2022-09-26T04:19:37.988Z,15.07
2022-09-26T04:22:05.902Z,16.50
2022-09-26T04:24:32.971Z,14.63
2022-09-26T04:27:00.818Z,13.50
2022-09-26T04:29:29.168Z,18.25
2022-09-26T04:31:56.438Z,16.35
2022-09-26T04:34:27.292Z,15.90
2022-09-26T04:36:54.723Z,18.77
2022-09-26T04:39:21.521Z,17.62
2022-09-26T04:41:48.584Z,16.17
2022-09-26T04:44:15.250Z,15.90
2022-09-26T04:46:42.197Z,17.10
2022-09-26T04:49:09.630Z,15.02
2022-09-26T04:51:37.168Z,16.00
2022-09-26T04:54:04.295Z,16.90
2022-09-26T04:56:32.266Z,17.77
2022-09-26T04:58:59.454Z,16.98
2022-09-26T05:01:27.199Z,17.67
2022-09-26T05:03:57.655Z,14.68
2022-09-26T05:06:25.167Z,18.52
2022-09-26T05:08:53.506Z,17.75
2022-09-26T05:11:21.572Z,16.20
2022-09-26T05:13:53.560Z,18.33
2022-09-26T05:16:22.551Z,19.55
2022-09-26T05:18:53.133Z,17.90
2022-09-26T05:21:19.917Z,20.45
2022-09-26T05:24:05.530Z,19.67
2022-09-26T05:26:40.373Z,20.33
2022-09-26T05:29:09.029Z,20.55
2022-09-26T05:31:39.453Z,20.92
2022-09-26T05:34:08.663Z,20.92
2022-09-26T05:36:36.338Z,22.15
2022-09-26T05:39:26.750Z,22.13
2022-09-26T05:41:54.623Z,21.40
2022-09-26T05:44:21.273Z,21.85
2022-09-26T05:46:48.552Z,21.12
2022-09-26T05:49:15.744Z,19.12
2022-09-26T05:51:43.186Z,21.60
2022-09-26T05:54:10.523Z,21.37
2022-09-26T05:56:37.888Z,22.35
2022-09-26T05:59:06.898Z,24.35
2022-09-26T06:01:46.890Z,23.02
2022-09-26T06:04:15.417Z,24.20
2022-09-26T06:06:46.190Z,22.73
2022-09-26T06:09:15.153Z,22.85
2022-09-26T06:11:43.718Z,25.23
2022-09-26T06:14:10.913Z,24.92
2022-09-26T06:16:38.012Z,23.35
2022-09-26T06:19:05.158Z,23.73
2022-09-26T06:21:31.884Z,20.92
2022-09-26T06:23:59.174Z,22.77
2022-09-26T06:26:28.946Z,23.60
2022-09-26T06:28:58.230Z,22.75
2022-09-26T06:31:26.876Z,23.30
2022-09-26T06:33:58.526Z,22.95
2022-09-26T06:36:26.414Z,22.62
2022-09-26T06:38:54.985Z,23.08
2022-09-26T06:41:22.222Z,22.10
2022-09-26T06:43:50.017Z,21.12
2022-09-26T06:46:17.957Z,23.38
2022-09-26T06:48:46.663Z,22.20
2022-09-26T06:51:15.270Z,20.42
2022-09-26T06:53:44.613Z,21.35
2022-09-26T06:56:13.348Z,21.85
2022-09-26T06:58:40.660Z,22.02
2022-09-26T07:01:08.579Z,21.95
2022-09-26T07:03:42.924Z,20.80
2022-09-26T07:06:14.005Z,20.62
2022-09-26T07:09:01.630Z,19.35
2022-09-26T07:11:42.136Z,22.02
2022-09-26T07:14:18.257Z,22.17
2022-09-26T07:16:48.569Z,21.83
2022-09-26T07:19:17.002Z,22.52
2022-09-26T07:21:44.902Z,22.62
2022-09-26T07:24:15.016Z,22.05
2022-09-26T07:26:42.475Z,21.05
2022-09-26T07:29:09.966Z,20.80
2022-09-26T07:31:37.195Z,19.50
2022-09-26T07:34:08.935Z,19.45
2022-09-26T07:36:36.323Z,18.75
2022-09-26T07:39:04.028Z,17.90
2022-09-26T07:41:31.164Z,18.02
2022-09-26T07:47:04.603Z,17.87
2022-09-26T07:49:50.568Z,19.87
2022-09-26T07:52:22.300Z,18.27
2022-09-26T07:54:50.546Z,17.92
2022-09-26T07:57:19.545Z,18.00
2022-09-26T07:59:50.418Z,18.15
2022-09-26T08:02:23.595Z,17.58
2022-09-26T08:04:58.804Z,16.95
2022-09-26T08:07:27.506Z,16.98
2022-09-26T08:09:56.907Z,18.05
2022-09-26T08:12:27.030Z,18.17
2022-09-26T08:14:56.300Z,19.65
2022-09-26T08:17:24.131Z,19.00
2022-09-26T08:19:51.732Z,19.17
2022-09-26T08:22:19.134Z,19.00
2022-09-26T08:24:50.901Z,18.95
2022-09-26T08:27:18.370Z,18.40
2022-09-26T08:29:49.528Z,18.40
2022-09-26T08:32:17.542Z,15.82
2022-09-26T08:34:44.969Z,17.83
2022-09-26T08:37:29.498Z,20.10
2022-09-26T08:40:13.096Z,17.52
2022-09-26T08:42:53.687Z,17.92
2022-09-26T08:45:56.424Z,17.70
2022-09-26T08:51:29.383Z,14.80
2022-09-26T08:54:24.835Z,16.33
2022-09-26T08:57:15.168Z,17.75
2022-09-26T08:59:46.058Z,17.05
2022-09-26T09:02:44.315Z,17.98
2022-09-26T09:05:23.660Z,17.77
2022-09-26T09:07:54.632Z,18.12
2022-09-26T09:10:51.938Z,18.00
2022-09-26T09:13:37.601Z,18.23
2022-09-26T09:16:23.720Z,20.65
2022-09-26T09:19:11.629Z,19.75
2022-09-26T09:21:41.822Z,18.83
2022-09-26T09:24:37.218Z,17.92
2022-09-26T09:30:22.090Z,15.75
2022-09-26T09:33:03.649Z,16.17
2022-09-26T09:35:41.539Z,17.03
2022-09-26T09:38:16.261Z,16.77
2022-09-26T09:40:50.927Z,16.02
2022-09-26T09:43:35.604Z,16.02
2022-09-26T09:46:06.004Z,16.25
2022-09-26T09:48:33.387Z,19.77
2022-09-26T09:51:16.850Z,18.40
2022-09-26T09:53:50.603Z,15.52
2022-09-26T09:56:46.715Z,16.75
2022-09-26T09:59:47.235Z,15.85
2022-09-26T10:02:32.307Z,15.60
2022-09-26T10:05:18.553Z,16.45
2022-09-26T10:07:47.621Z,15.75
2022-09-26T10:10:21.844Z,15.60
2022-09-26T10:12:52.783Z,15.55
2022-09-26T10:15:26.270Z,16.73
2022-09-26T10:18:23.962Z,17.35
2022-09-26T10:20:53.997Z,18.75
2022-09-26T10:23:31.135Z,22.30
2022-09-26T10:26:04.627Z,20.40
2022-09-26T10:28:36.880Z,17.62
2022-09-26T10:31:10.720Z,16.00
2022-09-26T10:33:45.320Z,15.95
2022-09-26T10:36:27.967Z,14.52
2022-09-26T10:39:21.307Z,15.47
2022-09-26T10:41:58.003Z,14.15
2022-09-26T10:44:33.673Z,16.17
2022-09-26T10:47:13.136Z,15.40
2022-09-26T10:49:51.271Z,15.23
2022-09-26T10:52:36.521Z,15.20
2022-09-26T10:55:15.418Z,14.45
2022-09-26T10:57:48.029Z,15.57
2022-09-26T11:00:37.172Z,14.43
2022-09-26T11:03:07.531Z,15.85
2022-09-26T11:05:57.326Z,15.20
2022-09-26T11:08:30.371Z,14.87
2022-09-26T11:11:00.548Z,14.65
2022-09-26T11:13:50.140Z,13.10
2022-09-26T11:16:20.275Z,14.57
2022-09-26T11:19:01.684Z,14.85
2022-09-26T11:21:47.980Z,13.98
2022-09-26T11:24:37.432Z,14.05
2022-09-26T11:27:31.185Z,14.70
2022-09-26T11:30:09.380Z,11.40
2022-09-26T11:32:42.869Z,13.05
2022-09-26T11:35:16.519Z,13.88
2022-09-26T11:37:55.197Z,12.40
2022-09-26T11:40:50.522Z,12.65
2022-09-26T11:43:36.182Z,12.57
2022-09-26T11:46:15.242Z,12.65
2022-09-26T11:48:49.129Z,13.15
2022-09-26T11:51:40.140Z,13.38
2022-09-26T11:54:45.629Z,12.18
2022-09-26T11:57:28.079Z,11.27
2022-09-26T12:02:58.367Z,10.60
2022-09-26T12:05:44.329Z,11.10
2022-09-26T12:08:42.039Z,10.13
2022-09-26T12:11:28.078Z,11.90
2022-09-26T12:14:15.917Z,10.75
2022-09-26T12:16:58.777Z,11.80
2022-09-26T12:19:32.065Z,10.82
2022-09-26T12:22:28.480Z,12.32
2022-09-26T12:25:00.637Z,11.32
2022-09-26T12:27:36.157Z,10.55
2022-09-26T12:30:10.784Z,11.07
2022-09-26T12:33:00.947Z,10.48
2022-09-26T12:35:55.816Z,11.23
2022-09-26T12:38:32.811Z,11.73
2022-09-26T12:41:23.054Z,12.25
2022-09-26T12:44:01.875Z,11.70
2022-09-26T12:46:37.596Z,12.45
2022-09-26T12:49:32.083Z,12.90
2022-09-26T12:52:27.277Z,13.43
2022-09-26T12:55:00.371Z,12.70
2022-09-26T12:57:32.948Z,12.13
2022-09-26T13:00:31.351Z,12.45
2022-09-26T13:03:28.748Z,12.25
2022-09-26T13:06:33.517Z,12.07
2022-09-26T13:09:45.759Z,12.05
2022-09-26T13:12:22.918Z,12.05
2022-09-26T13:15:00.905Z,12.77
2022-09-26T13:17:34.644Z,12.60
2022-09-26T13:20:06.071Z,12.98
2022-09-26T13:25:21.824Z,11.27
2022-09-26T13:28:21.260Z,11.80
2022-09-26T13:30:54.825Z,12.45
2022-09-26T13:33:31.310Z,11.85
2022-09-26T13:36:00.896Z,13.13
2022-09-26T13:38:34.852Z,12.27
2022-09-26T13:41:26.933Z,11.60
2022-09-26T13:44:09.203Z,12.45
2022-09-26T13:46:48.143Z,15.70
2022-09-26T13:49:36.780Z,12.40
2022-09-26T13:52:19.218Z,11.75
2022-09-26T13:55:02.141Z,10.80
2022-09-26T13:57:46.839Z,11.95
2022-09-26T14:00:24.338Z,12.30
2022-09-26T14:03:10.378Z,11.85
2022-09-26T14:05:43.662Z,11.63
2022-09-26T14:08:44.990Z,12.52
2022-09-26T14:11:27.781Z,11.87
2022-09-26T14:14:18.351Z,10.73
2022-09-26T14:16:49.801Z,11.32
2022-09-26T14:19:46.568Z,10.50
2022-09-26T14:22:20.556Z,10.27
2022-09-26T14:24:49.216Z,11.25
2022-09-26T14:27:15.959Z,10.38
2022-09-26T14:29:44.532Z,10.52
2022-09-26T14:32:18.579Z,11.32
2022-09-26T14:34:57.306Z,11.38
2022-09-26T14:37:24.257Z,11.20
2022-09-26T14:40:01.076Z,10.55
2022-09-26T14:42:34.275Z,9.52
2022-09-26T14:45:05.095Z,8.80
2022-09-26T14:47:48.654Z,8.32
2022-09-26T14:50:20.790Z,8.13
2022-09-26T14:52:57.988Z,9.07
2022-09-26T14:55:26.975Z,10.80
2022-09-26T14:58:37.284Z,10.68
2022-09-26T15:01:18.025Z,11.43
2022-09-26T15:04:12.760Z,11.10
2022-09-26T15:06:46.320Z,11.60
2022-09-26T15:09:55.653Z,12.25
2022-09-26T15:12:44.322Z,10.90
2022-09-26T15:15:43.441Z,12.00
2022-09-26T15:18:28.579Z,10.20
2022-09-26T15:21:04.358Z,11.82
2022-09-26T15:23:34.125Z,11.52
2022-09-26T15:26:06.088Z,11.40
2022-09-26T15:28:34.845Z,12.15
2022-09-26T15:31:28.182Z,11.38
2022-09-26T15:34:01.981Z,10.98
2022-09-26T15:36:32.141Z,11.02
2022-09-26T15:38:59.846Z,11.43
2022-09-26T15:41:45.514Z,11.02
2022-09-26T15:44:22.631Z,10.93
2022-09-26T15:46:50.656Z,10.23
2022-09-26T15:49:22.603Z,11.07
2022-09-26T15:51:54.554Z,10.05
2022-09-26T15:54:28.059Z,11.32
2022-09-26T15:56:58.677Z,11.12
2022-09-26T15:59:41.437Z,10.70
2022-09-26T16:02:24.406Z,11.12
2022-09-26T16:04:54.822Z,10.13
2022-09-26T16:07:26.494Z,11.20
2022-09-26T16:09:56.062Z,11.20
2022-09-26T16:12:26.509Z,10.95
2022-09-26T16:14:58.405Z,11.95
2022-09-26T16:17:35.848Z,12.63
2022-09-26T16:20:25.669Z,12.07
2022-09-26T16:23:01.828Z,12.40
2022-09-26T16:25:52.794Z,12.73
2022-09-26T16:28:26.127Z,12.13
2022-09-26T16:30:53.145Z,11.98
2022-09-26T16:33:32.001Z,12.70
2022-09-26T16:36:13.315Z,12.85
2022-09-26T16:38:40.312Z,12.97
2022-09-26T16:41:56.483Z,12.43
2022-09-26T16:44:31.909Z,12.93
2022-09-26T16:47:04.678Z,13.93
2022-09-26T16:49:47.139Z,13.62
2022-09-26T16:52:36.567Z,12.40
2022-09-26T16:55:08.950Z,12.77
2022-09-26T16:57:39.947Z,12.80
2022-09-26T17:00:40.208Z,12.43
2022-09-26T17:03:22.551Z,12.15
2022-09-26T17:05:50.648Z,12.80
2022-09-26T17:08:18.531Z,12.80
2022-09-26T17:10:46.334Z,13.30
2022-09-26T17:13:22.685Z,13.25
2022-09-26T17:15:54.724Z,13.55
2022-09-26T17:20:50.831Z,12.02
2022-09-26T17:23:38.743Z,14.27
2022-09-26T17:26:06.850Z,13.35
2022-09-26T17:28:40.114Z,13.95
2022-09-26T17:31:11.999Z,13.05
2022-09-26T17:36:16.686Z,12.15
2022-09-26T17:38:43.830Z,13.15
2022-09-26T17:41:12.650Z,12.90
2022-09-26T17:43:41.115Z,12.40
2022-09-26T17:46:15.208Z,13.38
2022-09-26T17:48:43.559Z,12.60
2022-09-26T17:51:13.896Z,13.23
2022-09-26T17:53:50.127Z,13.62
2022-09-26T17:56:22.020Z,14.25
2022-09-26T17:58:49.633Z,13.25
2022-09-26T18:01:33.681Z,13.45
2022-09-26T18:04:06.223Z,12.63
2022-09-26T18:06:33.443Z,13.30
2022-09-26T18:09:07.711Z,13.00
2022-09-26T18:11:36.279Z,13.88
2022-09-26T18:14:06.137Z,15.90
2022-09-26T18:16:33.072Z,14.40
2022-09-26T18:19:06.071Z,13.20
2022-09-26T18:21:34.259Z,13.62
2022-09-26T18:24:06.466Z,14.40
2022-09-26T18:26:42.259Z,13.48
2022-09-26T18:29:13.584Z,14.50
2022-09-26T18:31:41.570Z,13.77
2022-09-26T18:34:18.765Z,14.05
2022-09-26T18:36:46.971Z,14.35
2022-09-26T18:39:13.754Z,14.73
2022-09-26T18:41:40.642Z,14.77
2022-09-26T18:44:16.594Z,14.73
2022-09-26T18:46:46.235Z,15.75
2022-09-26T18:49:14.380Z,15.13
2022-09-26T18:51:41.551Z,14.60
2022-09-26T18:54:16.544Z,16.30
2022-09-26T18:57:02.587Z,16.23
2022-09-26T18:59:32.253Z,17.00
2022-09-26T19:02:02.040Z,16.17
2022-09-26T19:04:30.723Z,16.58
2022-09-26T19:07:01.107Z,15.70
2022-09-26T19:09:32.847Z,15.68
2022-09-26T19:12:00.463Z,15.82
2022-09-26T19:14:29.115Z,17.25
2022-09-26T19:16:56.695Z,15.90
2022-09-26T19:19:24.451Z,16.67
2022-09-26T19:21:53.206Z,15.98
2022-09-26T19:24:37.968Z,14.65
2022-09-26T19:27:10.966Z,13.68
2022-09-26T19:29:43.636Z,12.68
2022-09-26T19:32:25.551Z,17.90
2022-09-26T19:34:56.938Z,12.80
2022-09-26T19:37:23.678Z,11.17
2022-09-26T19:39:50.653Z,11.48
2022-09-26T19:42:18.345Z,11.05
2022-09-26T19:44:45.399Z,11.02
2022-09-26T19:47:18.270Z,11.15
2022-09-26T19:49:48.566Z,10.30
2022-09-26T19:52:18.051Z,13.25
2022-09-26T19:54:45.453Z,12.57
2022-09-26T19:57:20.097Z,13.10
2022-09-26T19:59:48.514Z,13.57
2022-09-26T20:02:21.109Z,13.27
2022-09-26T20:04:48.690Z,14.87
2022-09-26T20:07:19.161Z,15.07
2022-09-26T20:09:46.402Z,16.05
2022-09-26T20:12:13.950Z,19.12
2022-09-26T20:14:40.928Z,16.17
2022-09-26T20:17:23.230Z,16.70
2022-09-26T20:19:54.007Z,17.17
2022-09-26T20:22:24.560Z,16.98
2022-09-26T20:24:55.403Z,16.00
2022-09-26T20:27:24.813Z,16.35
2022-09-26T20:30:11.322Z,14.07
2022-09-26T20:32:40.718Z,15.40
2022-09-26T20:35:13.347Z,14.95
2022-09-26T20:37:40.538Z,13.30
2022-09-26T20:40:18.082Z,14.63
2022-09-26T20:42:48.486Z,14.40
2022-09-26T20:45:18.054Z,15.52
2022-09-26T20:47:45.107Z,14.73
2022-09-26T20:50:17.991Z,14.48
2022-09-26T20:52:45.218Z,13.40
2022-09-26T20:55:18.016Z,12.93
2022-09-26T20:57:45.815Z,12.80
2022-09-26T21:00:20.669Z,12.98
2022-09-26T21:02:51.673Z,12.60
2022-09-26T21:05:22.996Z,14.02
2022-09-26T21:07:51.634Z,14.27
2022-09-26T21:10:33.002Z,14.38
2022-09-26T21:13:00.662Z,14.05
2022-09-26T21:15:30.937Z,12.43
2022-09-26T21:17:58.244Z,13.68
2022-09-26T21:20:33.889Z,13.80
2022-09-26T21:23:01.961Z,13.75
2022-09-26T21:25:31.297Z,12.90
2022-09-26T21:28:26.478Z,12.85
2022-09-26T21:31:00.405Z,12.50
2022-09-26T21:33:27.159Z,13.35
2022-09-26T21:35:54.726Z,12.85
2022-09-26T21:38:22.088Z,12.55
2022-09-26T21:40:55.420Z,12.45
2022-09-26T21:43:27.504Z,11.27
2022-09-26T21:45:54.307Z,12.23
2022-09-26T21:48:21.352Z,12.43
2022-09-26T21:50:57.663Z,12.48
2022-09-26T21:53:33.008Z,11.32
2022-09-26T21:56:07.393Z,12.37
2022-09-26T21:58:37.606Z,11.45
2022-09-26T22:01:04.987Z,11.60
2022-09-26T22:03:32.200Z,11.57
2022-09-26T22:06:01.371Z,11.38
2022-09-26T22:08:30.996Z,11.02
2022-09-26T22:10:57.971Z,12.02
2022-09-26T22:13:24.916Z,12.52
2022-09-26T22:15:51.649Z,12.15
2022-09-26T22:18:18.662Z,12.10
2022-09-26T22:20:45.324Z,12.93
2022-09-26T22:23:12.036Z,13.18
2022-09-26T22:25:42.800Z,12.90
2022-09-26T22:28:09.659Z,11.88
2022-09-26T22:30:39.408Z,12.25
2022-09-26T22:33:06.468Z,11.65
2022-09-26T22:35:33.081Z,12.23
2022-09-26T22:37:59.711Z,13.20
2022-09-26T22:40:26.785Z,11.63
2022-09-26T22:42:53.408Z,11.88
2022-09-26T22:45:20.527Z,13.05
2022-09-26T22:47:47.467Z,11.95
2022-09-26T22:50:14.889Z,12.68
2022-09-26T22:52:41.604Z,11.95
2022-09-26T22:55:08.806Z,12.05
2022-09-26T22:57:35.791Z,12.52
2022-09-26T23:00:03.771Z,11.48
2022-09-26T23:02:30.954Z,12.27
2022-09-26T23:04:57.896Z,11.55
2022-09-26T23:07:24.616Z,11.77
2022-09-26T23:09:51.817Z,11.55
2022-09-26T23:12:19.115Z,11.63
2022-09-26T23:14:45.896Z,11.57
2022-09-26T23:17:13.197Z,11.23
2022-09-26T23:19:40.250Z,11.20
2022-09-26T23:22:06.872Z,11.65
2022-09-26T23:24:33.763Z,11.75
2022-09-26T23:27:00.362Z,12.57
2022-09-26T23:29:26.984Z,11.07
2022-09-26T23:31:54.002Z,12.13
2022-09-26T23:34:20.960Z,11.63
2022-09-26T23:36:47.762Z,11.90
2022-09-26T23:39:14.820Z,12.15
2022-09-26T23:41:41.687Z,11.82
2022-09-26T23:44:08.468Z,12.40
2022-09-26T23:46:35.546Z,12.32
2022-09-26T23:49:02.247Z,11.90
2022-09-26T23:51:28.961Z,12.02
2022-09-26T23:53:55.868Z,12.63
2022-09-26T23:56:22.511Z,13.02
2022-09-26T23:58:49.310Z,12.93
